This is the latest recevied weather packets stored in our database for station/object F6JSP-13. If no packets are shown the sender has not sent any weather packets the latest 10 day(s).
| Time | Temp. | Humidity | Pressure | Rain* | Wind** | Luminosity | Snow |
|---|---|---|---|---|---|---|---|
| 1777551905 | 22.22° C | 48% | 1013.9 hPa | 0 mm | - | 451 W/m² | - |
| 1777550105 | 22.22° C | 51% | 1014 hPa | 0 mm | - | 465 W/m² | - |
| 1777549505 | 21.11° C | 53% | 1013.7 hPa | 0 mm | - | 464 W/m² | - |
| 1777545006 | 18.89° C | 60% | 1013.9 hPa | 0 mm | - | 505 W/m² | - |
| 1777544705 | 18.33° C | 59% | 1013.9 hPa | 0 mm | - | 521 W/m² | - |
| 1777542905 | 17.78° C | 63% | 1013.8 hPa | 0 mm | - | 294 W/m² | - |
| 1777541705 | 17.22° C | 61% | 1013.8 hPa | 0 mm | - | 281 W/m² | - |
| 1777540205 | 16.67° C | 62% | 1013.5 hPa | 0 mm | - | 141 W/m² | - |
| 1777538705 | 16.67° C | 62% | 1013.5 hPa | 0 mm | - | 152 W/m² | - |
| 1777536305 | 15.56° C | 62% | 1013.5 hPa | 0 mm | - | 165 W/m² | - |
| 1777532704 | 15° C | 63% | 1013 hPa | 0 mm | - | 98 W/m² | - |
| 1777531506 | 14.44° C | 62% | 1013.2 hPa | 0 mm | - | 77 W/m² | - |
| 1777530005 | 14.44° C | 62% | 1013.3 hPa | 0 mm | - | 53 W/m² | - |
| 1777529704 | 14.44° C | 62% | 1012.9 hPa | 0 mm | - | 44 W/m² | - |
| 1777528805 | 14.44° C | 62% | 1012.7 hPa | 0 mm | - | 29 W/m² | - |
| 1777526705 | 15° C | 61% | 1012.4 hPa | 0 mm | - | 13 W/m² | - |
| 1777525205 | 15° C | 61% | 1012.2 hPa | 0 mm | - | 2 W/m² | - |
| 1777522805 | 15.56° C | 60% | 1012 hPa | 0 mm | - | 0 W/m² | - |
| 1777521605 | 15.56° C | 60% | 1011.8 hPa | 0 mm | - | 0 W/m² | - |
| 1777519805 | 16.11° C | 60% | 1011.6 hPa | 0 mm | - | 0 W/m² | - |
| 1777519205 | 16.11° C | 60% | 1011.6 hPa | 0 mm | - | 0 W/m² | - |
| 1777516205 | 16.67° C | 59% | 1011.3 hPa | 0 mm | - | 0 W/m² | - |
| 1777515305 | 16.67° C | 58% | 1011.1 hPa | 0 mm | - | 0 W/m² | - |
| 1777514105 | 16.67° C | 58% | 1011.3 hPa | 0 mm | - | 0 W/m² | - |
| 1777511105 | 17.22° C | 57% | 1010.9 hPa | 0 mm | - | 0 W/m² | - |
* Rain latest hour (hover to see other rain measurements)
** Current wind speed in m/s (hover to see current wind gust speed)